sensor_id;sensor_type;location;lat;lon;timestamp;temperature;humidity
3923;DHT22;1976;51.694;6.256;2023-03-03T00:02:23;5.30;99.90
3923;DHT22;1976;51.694;6.256;2023-03-03T00:04:49;5.30;99.90
3923;DHT22;1976;51.694;6.256;2023-03-03T00:07:15;5.40;99.90
3923;DHT22;1976;51.694;6.256;2023-03-03T00:09:46;5.30;99.90
3923;DHT22;1976;51.694;6.256;2023-03-03T00:12:26;5.20;99.90
3923;DHT22;1976;51.694;6.256;2023-03-03T00:14:53;5.00;99.90
3923;DHT22;1976;51.694;6.256;2023-03-03T00:17:24;5.10;99.90
3923;DHT22;1976;51.694;6.256;2023-03-03T00:19:51;5.00;99.90
3923;DHT22;1976;51.694;6.256;2023-03-03T00:22:29;4.90;99.90
3923;DHT22;1976;51.694;6.256;2023-03-03T00:27:49;5.30;99.90
3923;DHT22;1976;51.694;6.256;2023-03-03T00:30:25;5.40;99.90
3923;DHT22;1976;51.694;6.256;2023-03-03T00:32:52;5.40;99.90
3923;DHT22;1976;51.694;6.256;2023-03-03T00:35:28;5.40;99.90
3923;DHT22;1976;51.694;6.256;2023-03-03T00:38:08;5.40;99.90
3923;DHT22;1976;51.694;6.256;2023-03-03T00:40:39;5.40;99.90
3923;DHT22;1976;51.694;6.256;2023-03-03T00:43:21;5.20;99.90
3923;DHT22;1976;51.694;6.256;2023-03-03T00:45:56;5.00;99.90
3923;DHT22;1976;51.694;6.256;2023-03-03T00:51:00;4.80;99.90
3923;DHT22;1976;51.694;6.256;2023-03-03T00:53:28;4.70;99.90
3923;DHT22;1976;51.694;6.256;2023-03-03T00:55:54;4.60;99.90
3923;DHT22;1976;51.694;6.256;2023-03-03T00:58:21;4.60;99.90
3923;DHT22;1976;51.694;6.256;2023-03-03T01:00:49;4.60;99.90
3923;DHT22;1976;51.694;6.256;2023-03-03T01:03:18;4.70;99.90
3923;DHT22;1976;51.694;6.256;2023-03-03T01:05:44;4.90;99.90
3923;DHT22;1976;51.694;6.256;2023-03-03T01:08:11;5.00;99.90
3923;DHT22;1976;51.694;6.256;2023-03-03T01:10:44;5.00;99.90
3923;DHT22;1976;51.694;6.256;2023-03-03T01:13:10;5.00;99.90
3923;DHT22;1976;51.694;6.256;2023-03-03T01:15:38;4.90;99.90
3923;DHT22;1976;51.694;6.256;2023-03-03T01:18:05;4.90;99.90
3923;DHT22;1976;51.694;6.256;2023-03-03T01:20:30;4.90;99.90
3923;DHT22;1976;51.694;6.256;2023-03-03T01:22:56;4.90;99.90
3923;DHT22;1976;51.694;6.256;2023-03-03T01:25:22;4.90;99.90
3923;DHT22;1976;51.694;6.256;2023-03-03T01:27:47;4.90;99.90
3923;DHT22;1976;51.694;6.256;2023-03-03T01:30:13;5.00;99.90
3923;DHT22;1976;51.694;6.256;2023-03-03T01:32:40;5.20;99.90
3923;DHT22;1976;51.694;6.256;2023-03-03T01:35:06;5.20;99.90
3923;DHT22;1976;51.694;6.256;2023-03-03T01:37:34;5.40;99.90
3923;DHT22;1976;51.694;6.256;2023-03-03T01:40:00;5.40;99.90
3923;DHT22;1976;51.694;6.256;2023-03-03T01:42:26;5.50;99.90
3923;DHT22;1976;51.694;6.256;2023-03-03T01:45:30;5.50;99.90
3923;DHT22;1976;51.694;6.256;2023-03-03T01:48:05;5.30;99.90
3923;DHT22;1976;51.694;6.256;2023-03-03T01:50:54;5.10;99.90
3923;DHT22;1976;51.694;6.256;2023-03-03T01:53:54;5.00;99.90
3923;DHT22;1976;51.694;6.256;2023-03-03T01:56:20;4.70;99.90
3923;DHT22;1976;51.694;6.256;2023-03-03T01:58:50;4.60;99.90
3923;DHT22;1976;51.694;6.256;2023-03-03T02:01:23;4.60;99.90
3923;DHT22;1976;51.694;6.256;2023-03-03T02:03:49;4.70;99.90
3923;DHT22;1976;51.694;6.256;2023-03-03T02:06:19;4.80;99.90
3923;DHT22;1976;51.694;6.256;2023-03-03T02:09:08;4.90;99.90
3923;DHT22;1976;51.694;6.256;2023-03-03T02:11:36;4.90;99.90
3923;DHT22;1976;51.694;6.256;2023-03-03T02:14:03;5.20;99.90
3923;DHT22;1976;51.694;6.256;2023-03-03T02:16:29;5.20;99.90
3923;DHT22;1976;51.694;6.256;2023-03-03T02:18:55;5.30;99.90
3923;DHT22;1976;51.694;6.256;2023-03-03T02:21:22;5.50;99.90
3923;DHT22;1976;51.694;6.256;2023-03-03T02:23:49;5.60;99.90
3923;DHT22;1976;51.694;6.256;2023-03-03T02:26:21;5.40;99.90
3923;DHT22;1976;51.694;6.256;2023-03-03T02:28:48;5.10;99.90
3923;DHT22;1976;51.694;6.256;2023-03-03T02:31:16;5.00;99.90
3923;DHT22;1976;51.694;6.256;2023-03-03T02:33:46;5.00;99.90
3923;DHT22;1976;51.694;6.256;2023-03-03T02:36:18;4.90;99.90
3923;DHT22;1976;51.694;6.256;2023-03-03T02:44:23;5.10;99.90
3923;DHT22;1976;51.694;6.256;2023-03-03T02:46:50;5.00;99.90
3923;DHT22;1976;51.694;6.256;2023-03-03T02:49:20;5.00;99.90
3923;DHT22;1976;51.694;6.256;2023-03-03T02:51:46;5.00;99.90
3923;DHT22;1976;51.694;6.256;2023-03-03T02:54:13;5.00;99.90
3923;DHT22;1976;51.694;6.256;2023-03-03T02:56:39;5.00;99.90
3923;DHT22;1976;51.694;6.256;2023-03-03T02:59:05;5.10;99.90
3923;DHT22;1976;51.694;6.256;2023-03-03T03:01:31;5.00;99.90
3923;DHT22;1976;51.694;6.256;2023-03-03T03:04:05;4.70;99.90
3923;DHT22;1976;51.694;6.256;2023-03-03T03:06:31;4.70;99.90
3923;DHT22;1976;51.694;6.256;2023-03-03T03:08:57;4.40;99.90
3923;DHT22;1976;51.694;6.256;2023-03-03T03:11:23;4.40;99.90
3923;DHT22;1976;51.694;6.256;2023-03-03T03:13:48;4.10;99.90
3923;DHT22;1976;51.694;6.256;2023-03-03T03:16:14;4.00;99.90
3923;DHT22;1976;51.694;6.256;2023-03-03T03:18:39;4.00;99.90
3923;DHT22;1976;51.694;6.256;2023-03-03T03:21:07;3.90;99.90
3923;DHT22;1976;51.694;6.256;2023-03-03T03:23:33;3.90;99.90
3923;DHT22;1976;51.694;6.256;2023-03-03T03:25:59;3.90;99.90
3923;DHT22;1976;51.694;6.256;2023-03-03T03:28:25;3.80;99.90
3923;DHT22;1976;51.694;6.256;2023-03-03T03:30:50;3.70;99.90
3923;DHT22;1976;51.694;6.256;2023-03-03T03:33:16;3.70;99.90
3923;DHT22;1976;51.694;6.256;2023-03-03T03:35:42;3.70;99.90
3923;DHT22;1976;51.694;6.256;2023-03-03T03:38:11;3.70;99.90
3923;DHT22;1976;51.694;6.256;2023-03-03T03:40:38;3.70;99.90
3923;DHT22;1976;51.694;6.256;2023-03-03T03:43:04;3.70;99.90
3923;DHT22;1976;51.694;6.256;2023-03-03T03:45:30;3.70;99.90
3923;DHT22;1976;51.694;6.256;2023-03-03T03:47:56;3.70;99.90
3923;DHT22;1976;51.694;6.256;2023-03-03T03:50:22;3.70;99.90
3923;DHT22;1976;51.694;6.256;2023-03-03T03:52:47;3.70;99.90
3923;DHT22;1976;51.694;6.256;2023-03-03T03:55:13;3.70;99.90
3923;DHT22;1976;51.694;6.256;2023-03-03T03:57:39;3.80;99.90
3923;DHT22;1976;51.694;6.256;2023-03-03T04:00:06;3.80;99.90
3923;DHT22;1976;51.694;6.256;2023-03-03T04:02:33;3.80;99.90
3923;DHT22;1976;51.694;6.256;2023-03-03T04:04:59;3.80;99.90
3923;DHT22;1976;51.694;6.256;2023-03-03T04:07:25;3.70;99.90
3923;DHT22;1976;51.694;6.256;2023-03-03T04:09:50;3.70;99.90
3923;DHT22;1976;51.694;6.256;2023-03-03T04:12:16;3.70;99.90
3923;DHT22;1976;51.694;6.256;2023-03-03T04:14:42;3.60;99.90
3923;DHT22;1976;51.694;6.256;2023-03-03T04:17:07;3.70;99.90
3923;DHT22;1976;51.694;6.256;2023-03-03T04:19:34;3.70;99.90
3923;DHT22;1976;51.694;6.256;2023-03-03T04:22:00;3.70;99.90
3923;DHT22;1976;51.694;6.256;2023-03-03T04:24:26;3.60;99.90
3923;DHT22;1976;51.694;6.256;2023-03-03T04:26:51;3.60;99.90
3923;DHT22;1976;51.694;6.256;2023-03-03T04:29:17;3.60;99.90
3923;DHT22;1976;51.694;6.256;2023-03-03T04:31:43;3.60;99.90
3923;DHT22;1976;51.694;6.256;2023-03-03T04:34:08;3.60;99.90
3923;DHT22;1976;51.694;6.256;2023-03-03T04:36:34;3.70;99.90
3923;DHT22;1976;51.694;6.256;2023-03-03T04:38:59;3.70;99.90
3923;DHT22;1976;51.694;6.256;2023-03-03T04:41:25;3.70;99.90
3923;DHT22;1976;51.694;6.256;2023-03-03T04:43:50;3.70;99.90
3923;DHT22;1976;51.694;6.256;2023-03-03T04:46:16;3.70;99.90
3923;DHT22;1976;51.694;6.256;2023-03-03T04:48:42;3.70;99.90
3923;DHT22;1976;51.694;6.256;2023-03-03T04:51:07;3.70;99.90
3923;DHT22;1976;51.694;6.256;2023-03-03T04:53:33;3.70;99.90
3923;DHT22;1976;51.694;6.256;2023-03-03T04:55:59;3.80;99.90
3923;DHT22;1976;51.694;6.256;2023-03-03T04:58:24;3.80;99.90
3923;DHT22;1976;51.694;6.256;2023-03-03T05:00:55;3.90;99.90
3923;DHT22;1976;51.694;6.256;2023-03-03T05:03:21;3.80;99.90
3923;DHT22;1976;51.694;6.256;2023-03-03T05:05:47;3.80;99.90
3923;DHT22;1976;51.694;6.256;2023-03-03T05:08:13;3.90;99.90
3923;DHT22;1976;51.694;6.256;2023-03-03T05:10:39;3.90;99.90
3923;DHT22;1976;51.694;6.256;2023-03-03T05:13:05;3.90;99.90
3923;DHT22;1976;51.694;6.256;2023-03-03T05:15:31;3.90;99.90
3923;DHT22;1976;51.694;6.256;2023-03-03T05:17:57;4.00;99.90
3923;DHT22;1976;51.694;6.256;2023-03-03T05:20:23;4.00;99.90
3923;DHT22;1976;51.694;6.256;2023-03-03T05:22:49;3.90;99.90
3923;DHT22;1976;51.694;6.256;2023-03-03T05:25:16;3.90;99.90
3923;DHT22;1976;51.694;6.256;2023-03-03T05:32:34;4.00;99.90
3923;DHT22;1976;51.694;6.256;2023-03-03T05:35:01;4.00;99.90
3923;DHT22;1976;51.694;6.256;2023-03-03T05:37:26;4.00;99.90
3923;DHT22;1976;51.694;6.256;2023-03-03T05:39:52;4.00;99.90
3923;DHT22;1976;51.694;6.256;2023-03-03T05:42:17;3.90;99.90
3923;DHT22;1976;51.694;6.256;2023-03-03T05:44:43;3.90;99.90
3923;DHT22;1976;51.694;6.256;2023-03-03T05:49:35;3.90;99.90
3923;DHT22;1976;51.694;6.256;2023-03-03T05:52:01;4.00;99.90
3923;DHT22;1976;51.694;6.256;2023-03-03T05:54:27;3.90;99.90
3923;DHT22;1976;51.694;6.256;2023-03-03T05:56:52;3.90;99.90
3923;DHT22;1976;51.694;6.256;2023-03-03T05:59:18;3.90;99.90
3923;DHT22;1976;51.694;6.256;2023-03-03T06:01:44;4.00;99.90
3923;DHT22;1976;51.694;6.256;2023-03-03T06:04:09;4.10;99.90
3923;DHT22;1976;51.694;6.256;2023-03-03T06:06:35;4.10;99.90
3923;DHT22;1976;51.694;6.256;2023-03-03T06:09:01;4.10;99.90
3923;DHT22;1976;51.694;6.256;2023-03-03T06:11:27;4.10;99.90
3923;DHT22;1976;51.694;6.256;2023-03-03T06:13:52;4.10;99.90
3923;DHT22;1976;51.694;6.256;2023-03-03T06:16:18;4.20;99.90
3923;DHT22;1976;51.694;6.256;2023-03-03T06:18:45;4.20;99.90
3923;DHT22;1976;51.694;6.256;2023-03-03T06:21:10;4.30;99.90
3923;DHT22;1976;51.694;6.256;2023-03-03T06:23:36;4.30;99.90
3923;DHT22;1976;51.694;6.256;2023-03-03T06:26:02;4.20;99.90
3923;DHT22;1976;51.694;6.256;2023-03-03T06:28:27;4.20;99.90
3923;DHT22;1976;51.694;6.256;2023-03-03T06:30:54;4.20;99.90
3923;DHT22;1976;51.694;6.256;2023-03-03T06:33:20;4.20;99.90
3923;DHT22;1976;51.694;6.256;2023-03-03T06:38:16;4.30;99.90
3923;DHT22;1976;51.694;6.256;2023-03-03T06:40:41;4.20;99.90
3923;DHT22;1976;51.694;6.256;2023-03-03T06:43:07;4.20;99.90
3923;DHT22;1976;51.694;6.256;2023-03-03T06:45:34;4.10;99.90
3923;DHT22;1976;51.694;6.256;2023-03-03T06:48:00;4.10;99.90
3923;DHT22;1976;51.694;6.256;2023-03-03T06:50:26;4.10;99.90
3923;DHT22;1976;51.694;6.256;2023-03-03T06:53:14;4.10;99.90
3923;DHT22;1976;51.694;6.256;2023-03-03T06:55:40;4.10;99.90
3923;DHT22;1976;51.694;6.256;2023-03-03T06:58:14;4.10;99.90
3923;DHT22;1976;51.694;6.256;2023-03-03T07:00:42;4.10;99.90
3923;DHT22;1976;51.694;6.256;2023-03-03T07:03:17;4.10;99.90
3923;DHT22;1976;51.694;6.256;2023-03-03T07:05:44;4.20;99.90
3923;DHT22;1976;51.694;6.256;2023-03-03T07:08:15;4.20;99.90
3923;DHT22;1976;51.694;6.256;2023-03-03T07:10:41;4.20;99.90
3923;DHT22;1976;51.694;6.256;2023-03-03T07:13:26;4.30;99.90
3923;DHT22;1976;51.694;6.256;2023-03-03T07:15:54;4.30;99.90
3923;DHT22;1976;51.694;6.256;2023-03-03T07:20:58;4.30;99.90
3923;DHT22;1976;51.694;6.256;2023-03-03T07:23:25;4.30;99.90
3923;DHT22;1976;51.694;6.256;2023-03-03T07:25:52;4.30;99.90
3923;DHT22;1976;51.694;6.256;2023-03-03T07:28:27;4.30;99.90
3923;DHT22;1976;51.694;6.256;2023-03-03T07:30:54;4.30;99.90
3923;DHT22;1976;51.694;6.256;2023-03-03T07:35:56;4.50;99.90
3923;DHT22;1976;51.694;6.256;2023-03-03T07:38:37;4.50;99.90
3923;DHT22;1976;51.694;6.256;2023-03-03T07:41:16;4.50;99.90
3923;DHT22;1976;51.694;6.256;2023-03-03T07:43:53;4.50;99.90
3923;DHT22;1976;51.694;6.256;2023-03-03T07:48:59;4.60;99.90
3923;DHT22;1976;51.694;6.256;2023-03-03T07:51:36;4.60;99.90
3923;DHT22;1976;51.694;6.256;2023-03-03T07:56:51;4.70;99.90
3923;DHT22;1976;51.694;6.256;2023-03-03T07:59:20;4.80;99.90
3923;DHT22;1976;51.694;6.256;2023-03-03T08:01:56;4.90;99.90
3923;DHT22;1976;51.694;6.256;2023-03-03T08:04:28;5.00;99.90
3923;DHT22;1976;51.694;6.256;2023-03-03T08:07:00;5.10;99.90
3923;DHT22;1976;51.694;6.256;2023-03-03T08:09:36;5.20;99.90
3923;DHT22;1976;51.694;6.256;2023-03-03T08:12:17;5.20;99.90
3923;DHT22;1976;51.694;6.256;2023-03-03T08:14:44;5.30;99.90
3923;DHT22;1976;51.694;6.256;2023-03-03T08:17:20;5.40;99.90
3923;DHT22;1976;51.694;6.256;2023-03-03T08:19:47;5.50;99.90
3923;DHT22;1976;51.694;6.256;2023-03-03T08:22:34;5.60;99.90
3923;DHT22;1976;51.694;6.256;2023-03-03T08:25:03;5.60;99.90
3923;DHT22;1976;51.694;6.256;2023-03-03T08:27:28;5.70;99.90
3923;DHT22;1976;51.694;6.256;2023-03-03T08:29:54;5.80;99.90
3923;DHT22;1976;51.694;6.256;2023-03-03T08:32:20;5.90;99.90
3923;DHT22;1976;51.694;6.256;2023-03-03T08:34:45;6.00;99.90
3923;DHT22;1976;51.694;6.256;2023-03-03T08:37:11;6.10;99.90
3923;DHT22;1976;51.694;6.256;2023-03-03T08:39:36;6.10;99.90
3923;DHT22;1976;51.694;6.256;2023-03-03T08:44:28;6.30;99.90
3923;DHT22;1976;51.694;6.256;2023-03-03T08:46:54;6.40;99.90
3923;DHT22;1976;51.694;6.256;2023-03-03T08:49:20;6.40;99.90
3923;DHT22;1976;51.694;6.256;2023-03-03T08:51:46;6.50;99.90
3923;DHT22;1976;51.694;6.256;2023-03-03T08:54:13;6.50;99.90
3923;DHT22;1976;51.694;6.256;2023-03-03T08:56:38;6.60;99.90
3923;DHT22;1976;51.694;6.256;2023-03-03T08:59:04;6.60;99.90
3923;DHT22;1976;51.694;6.256;2023-03-03T09:01:31;6.70;99.90
3923;DHT22;1976;51.694;6.256;2023-03-03T09:03:56;6.80;99.90
3923;DHT22;1976;51.694;6.256;2023-03-03T09:08:48;7.00;99.90
3923;DHT22;1976;51.694;6.256;2023-03-03T09:11:21;7.10;99.90
3923;DHT22;1976;51.694;6.256;2023-03-03T09:13:48;7.10;99.90
3923;DHT22;1976;51.694;6.256;2023-03-03T09:16:17;7.10;99.90
3923;DHT22;1976;51.694;6.256;2023-03-03T09:18:45;7.10;99.90
3923;DHT22;1976;51.694;6.256;2023-03-03T09:21:26;7.20;99.90
3923;DHT22;1976;51.694;6.256;2023-03-03T09:24:00;7.10;99.90
3923;DHT22;1976;51.694;6.256;2023-03-03T09:26:29;7.10;99.90
3923;DHT22;1976;51.694;6.256;2023-03-03T09:34:23;7.20;99.90
3923;DHT22;1976;51.694;6.256;2023-03-03T09:36:54;7.20;99.90
3923;DHT22;1976;51.694;6.256;2023-03-03T09:39:23;7.30;99.90
3923;DHT22;1976;51.694;6.256;2023-03-03T09:42:19;7.40;99.90
3923;DHT22;1976;51.694;6.256;2023-03-03T09:47:22;7.50;99.70
3923;DHT22;1976;51.694;6.256;2023-03-03T10:00:37;8.10;99.30
3923;DHT22;1976;51.694;6.256;2023-03-03T10:06:28;8.30;98.60
3923;DHT22;1976;51.694;6.256;2023-03-03T10:09:31;8.40;98.20
3923;DHT22;1976;51.694;6.256;2023-03-03T10:14:49;8.60;97.60
3923;DHT22;1976;51.694;6.256;2023-03-03T10:17:45;8.50;97.40
3923;DHT22;1976;51.694;6.256;2023-03-03T10:25:45;9.10;97.30
3923;DHT22;1976;51.694;6.256;2023-03-03T10:28:44;9.40;97.00
3923;DHT22;1976;51.694;6.256;2023-03-03T10:36:52;11.60;94.80
3923;DHT22;1976;51.694;6.256;2023-03-03T10:58:59;11.70;91.30
3923;DHT22;1976;51.694;6.256;2023-03-03T11:07:24;12.60;91.20
3923;DHT22;1976;51.694;6.256;2023-03-03T11:10:07;12.70;90.60
3923;DHT22;1976;51.694;6.256;2023-03-03T11:12:45;13.60;90.10
3923;DHT22;1976;51.694;6.256;2023-03-03T11:15:32;13.70;90.20
3923;DHT22;1976;51.694;6.256;2023-03-03T11:31:54;14.80;84.60
3923;DHT22;1976;51.694;6.256;2023-03-03T11:37:15;17.70;82.70
3923;DHT22;1976;51.694;6.256;2023-03-03T11:39:43;19.40;77.90
3923;DHT22;1976;51.694;6.256;2023-03-03T11:47:34;23.20;65.10
3923;DHT22;1976;51.694;6.256;2023-03-03T11:53:36;25.90;58.30
3923;DHT22;1976;51.694;6.256;2023-03-03T12:01:35;22.80;54.60
3923;DHT22;1976;51.694;6.256;2023-03-03T12:04:38;21.50;55.90
3923;DHT22;1976;51.694;6.256;2023-03-03T12:07:16;19.30;56.90
3923;DHT22;1976;51.694;6.256;2023-03-03T12:12:12;17.50;58.80
3923;DHT22;1976;51.694;6.256;2023-03-03T12:15:05;16.80;61.30
3923;DHT22;1976;51.694;6.256;2023-03-03T12:26:01;19.80;61.10
3923;DHT22;1976;51.694;6.256;2023-03-03T12:28:54;19.40;58.80
3923;DHT22;1976;51.694;6.256;2023-03-03T12:47:45;23.80;56.20
3923;DHT22;1976;51.694;6.256;2023-03-03T12:50:23;25.10;54.00
3923;DHT22;1976;51.694;6.256;2023-03-03T12:53:49;26.00;52.70
3923;DHT22;1976;51.694;6.256;2023-03-03T12:56:10;26.30;52.60
3923;DHT22;1976;51.694;6.256;2023-03-03T12:59:08;27.20;50.70
3923;DHT22;1976;51.694;6.256;2023-03-03T13:05:16;25.50;48.60
3923;DHT22;1976;51.694;6.256;2023-03-03T13:15:38;26.60;46.70
3923;DHT22;1976;51.694;6.256;2023-03-03T13:20:54;28.30;44.70
3923;DHT22;1976;51.694;6.256;2023-03-03T13:26:02;29.80;43.50
3923;DHT22;1976;51.694;6.256;2023-03-03T13:28:35;30.40;41.60
3923;DHT22;1976;51.694;6.256;2023-03-03T13:31:18;30.40;41.90
3923;DHT22;1976;51.694;6.256;2023-03-03T13:33:53;30.50;41.70
3923;DHT22;1976;51.694;6.256;2023-03-03T13:36:26;31.10;40.00
3923;DHT22;1976;51.694;6.256;2023-03-03T13:39:00;31.10;38.70
3923;DHT22;1976;51.694;6.256;2023-03-03T13:41:31;31.10;39.10
3923;DHT22;1976;51.694;6.256;2023-03-03T13:44:11;30.80;38.50
3923;DHT22;1976;51.694;6.256;2023-03-03T13:46:45;30.40;38.80
3923;DHT22;1976;51.694;6.256;2023-03-03T13:49:26;30.60;39.10
3923;DHT22;1976;51.694;6.256;2023-03-03T13:52:08;30.80;37.90
3923;DHT22;1976;51.694;6.256;2023-03-03T13:57:36;30.70;38.70
3923;DHT22;1976;51.694;6.256;2023-03-03T14:02:56;31.00;37.70
3923;DHT22;1976;51.694;6.256;2023-03-03T14:08:35;30.50;37.30
3923;DHT22;1976;51.694;6.256;2023-03-03T14:11:06;29.80;37.80
3923;DHT22;1976;51.694;6.256;2023-03-03T14:16:38;29.10;37.90
3923;DHT22;1976;51.694;6.256;2023-03-03T14:19:17;28.70;38.40
3923;DHT22;1976;51.694;6.256;2023-03-03T14:25:02;28.70;38.60
3923;DHT22;1976;51.694;6.256;2023-03-03T14:27:51;28.90;38.60
3923;DHT22;1976;51.694;6.256;2023-03-03T14:33:18;28.80;37.10
3923;DHT22;1976;51.694;6.256;2023-03-03T14:38:44;28.60;37.30
3923;DHT22;1976;51.694;6.256;2023-03-03T14:43:38;28.00;38.30
3923;DHT22;1976;51.694;6.256;2023-03-03T14:48:54;27.70;38.80
3923;DHT22;1976;51.694;6.256;2023-03-03T14:51:33;27.70;38.80
3923;DHT22;1976;51.694;6.256;2023-03-03T14:54:08;27.80;38.50
3923;DHT22;1976;51.694;6.256;2023-03-03T14:56:38;27.90;38.70
3923;DHT22;1976;51.694;6.256;2023-03-03T14:59:23;27.90;38.40
3923;DHT22;1976;51.694;6.256;2023-03-03T15:04:38;27.80;38.70
3923;DHT22;1976;51.694;6.256;2023-03-03T15:07:27;27.90;38.60
3923;DHT22;1976;51.694;6.256;2023-03-03T15:09:55;27.90;38.60
3923;DHT22;1976;51.694;6.256;2023-03-03T15:12:35;27.80;38.20
3923;DHT22;1976;51.694;6.256;2023-03-03T15:15:09;27.50;38.30
3923;DHT22;1976;51.694;6.256;2023-03-03T15:17:41;27.20;38.10
3923;DHT22;1976;51.694;6.256;2023-03-03T15:25:46;26.80;39.60
3923;DHT22;1976;51.694;6.256;2023-03-03T15:28:30;26.90;39.30
3923;DHT22;1976;51.694;6.256;2023-03-03T15:39:23;26.90;39.30
3923;DHT22;1976;51.694;6.256;2023-03-03T15:42:03;26.80;38.50
3923;DHT22;1976;51.694;6.256;2023-03-03T15:50:10;26.00;39.90
3923;DHT22;1976;51.694;6.256;2023-03-03T15:53:01;25.90;40.40
3923;DHT22;1976;51.694;6.256;2023-03-03T15:55:45;25.50;39.90
3923;DHT22;1976;51.694;6.256;2023-03-03T16:04:14;23.50;41.10
3923;DHT22;1976;51.694;6.256;2023-03-03T16:24:03;18.60;47.90
3923;DHT22;1976;51.694;6.256;2023-03-03T16:37:35;16.60;51.10
3923;DHT22;1976;51.694;6.256;2023-03-03T16:40:26;16.40;51.30
3923;DHT22;1976;51.694;6.256;2023-03-03T16:45:37;16.10;53.00
3923;DHT22;1976;51.694;6.256;2023-03-03T16:56:27;15.30;55.40
3923;DHT22;1976;51.694;6.256;2023-03-03T17:10:21;14.10;55.70
3923;DHT22;1976;51.694;6.256;2023-03-03T17:18:18;13.60;57.60
3923;DHT22;1976;51.694;6.256;2023-03-03T17:20:52;13.40;58.00
3923;DHT22;1976;51.694;6.256;2023-03-03T17:35:13;12.70;59.70
3923;DHT22;1976;51.694;6.256;2023-03-03T17:38:01;12.70;58.90
3923;DHT22;1976;51.694;6.256;2023-03-03T17:40:41;12.60;59.20
3923;DHT22;1976;51.694;6.256;2023-03-03T17:45:58;12.30;59.70
3923;DHT22;1976;51.694;6.256;2023-03-03T17:48:51;12.10;59.80
3923;DHT22;1976;51.694;6.256;2023-03-03T17:54:36;12.00;61.40
3923;DHT22;1976;51.694;6.256;2023-03-03T17:57:43;11.90;62.90
3923;DHT22;1976;51.694;6.256;2023-03-03T18:20:28;11.90;67.10
3923;DHT22;1976;51.694;6.256;2023-03-03T18:22:55;11.90;67.10
3923;DHT22;1976;51.694;6.256;2023-03-03T18:25:23;11.80;67.90
3923;DHT22;1976;51.694;6.256;2023-03-03T18:49:01;11.40;71.70
3923;DHT22;1976;51.694;6.256;2023-03-03T19:02:40;11.20;72.80
3923;DHT22;1976;51.694;6.256;2023-03-03T19:12:47;10.80;73.40
3923;DHT22;1976;51.694;6.256;2023-03-03T19:18:00;10.70;74.80
3923;DHT22;1976;51.694;6.256;2023-03-03T19:20:47;10.60;74.90
3923;DHT22;1976;51.694;6.256;2023-03-03T19:26:46;10.40;75.30
3923;DHT22;1976;51.694;6.256;2023-03-03T19:35:03;10.40;77.00
3923;DHT22;1976;51.694;6.256;2023-03-03T19:37:50;10.30;77.20
3923;DHT22;1976;51.694;6.256;2023-03-03T19:44:04;10.20;78.70
3923;DHT22;1976;51.694;6.256;2023-03-03T19:57:16;10.00;79.10
3923;DHT22;1976;51.694;6.256;2023-03-03T20:03:01;9.80;80.50
3923;DHT22;1976;51.694;6.256;2023-03-03T20:06:04;9.80;80.30
3923;DHT22;1976;51.694;6.256;2023-03-03T20:08:17;9.70;80.70
3923;DHT22;1976;51.694;6.256;2023-03-03T20:11:09;9.60;81.00
3923;DHT22;1976;51.694;6.256;2023-03-03T20:13:47;9.50;81.00
3923;DHT22;1976;51.694;6.256;2023-03-03T20:16:38;9.40;80.90
3923;DHT22;1976;51.694;6.256;2023-03-03T20:22:11;9.30;80.80
3923;DHT22;1976;51.694;6.256;2023-03-03T20:27:52;9.20;81.50
3923;DHT22;1976;51.694;6.256;2023-03-03T20:33:52;9.20;81.10
3923;DHT22;1976;51.694;6.256;2023-03-03T20:36:24;9.20;81.60
3923;DHT22;1976;51.694;6.256;2023-03-03T20:39:08;9.20;82.30
3923;DHT22;1976;51.694;6.256;2023-03-03T20:44:45;9.20;83.50
3923;DHT22;1976;51.694;6.256;2023-03-03T20:47:31;9.30;83.80
3923;DHT22;1976;51.694;6.256;2023-03-03T20:55:22;9.20;84.10
3923;DHT22;1976;51.694;6.256;2023-03-03T20:58:06;9.20;84.80
3923;DHT22;1976;51.694;6.256;2023-03-03T21:00:39;9.10;84.40
3923;DHT22;1976;51.694;6.256;2023-03-03T21:03:37;9.00;84.50
3923;DHT22;1976;51.694;6.256;2023-03-03T21:06:17;9.00;85.40
3923;DHT22;1976;51.694;6.256;2023-03-03T21:08:46;8.90;86.10
3923;DHT22;1976;51.694;6.256;2023-03-03T21:11:18;8.90;86.60
3923;DHT22;1976;51.694;6.256;2023-03-03T21:13:45;8.90;87.00
3923;DHT22;1976;51.694;6.256;2023-03-03T21:19:09;9.00;87.20
3923;DHT22;1976;51.694;6.256;2023-03-03T21:21:41;9.00;87.70
3923;DHT22;1976;51.694;6.256;2023-03-03T21:24:10;9.00;87.40
3923;DHT22;1976;51.694;6.256;2023-03-03T21:26:43;9.00;87.40
3923;DHT22;1976;51.694;6.256;2023-03-03T21:29:19;9.00;87.70
3923;DHT22;1976;51.694;6.256;2023-03-03T21:32:05;9.00;88.00
3923;DHT22;1976;51.694;6.256;2023-03-03T21:34:33;9.00;88.60
3923;DHT22;1976;51.694;6.256;2023-03-03T21:37:05;9.00;89.00
3923;DHT22;1976;51.694;6.256;2023-03-03T21:39:38;9.10;89.40
3923;DHT22;1976;51.694;6.256;2023-03-03T21:42:07;9.10;89.50
3923;DHT22;1976;51.694;6.256;2023-03-03T21:44:36;9.10;89.60
3923;DHT22;1976;51.694;6.256;2023-03-03T21:47:04;9.10;89.80
3923;DHT22;1976;51.694;6.256;2023-03-03T21:49:30;9.10;90.00
3923;DHT22;1976;51.694;6.256;2023-03-03T21:51:56;9.10;90.00
3923;DHT22;1976;51.694;6.256;2023-03-03T21:54:22;9.10;90.40
3923;DHT22;1976;51.694;6.256;2023-03-03T21:56:48;9.10;90.40
3923;DHT22;1976;51.694;6.256;2023-03-03T21:59:15;9.10;90.40
3923;DHT22;1976;51.694;6.256;2023-03-03T22:01:41;9.10;90.40
3923;DHT22;1976;51.694;6.256;2023-03-03T22:04:06;9.10;90.40
3923;DHT22;1976;51.694;6.256;2023-03-03T22:06:32;9.10;90.50
3923;DHT22;1976;51.694;6.256;2023-03-03T22:08:58;9.10;90.70
3923;DHT22;1976;51.694;6.256;2023-03-03T22:11:23;9.10;90.80
3923;DHT22;1976;51.694;6.256;2023-03-03T22:13:49;9.10;90.70
3923;DHT22;1976;51.694;6.256;2023-03-03T22:16:15;9.10;90.70
3923;DHT22;1976;51.694;6.256;2023-03-03T22:18:40;9.10;90.90
3923;DHT22;1976;51.694;6.256;2023-03-03T22:21:06;9.10;91.10
3923;DHT22;1976;51.694;6.256;2023-03-03T22:23:32;9.10;91.10
3923;DHT22;1976;51.694;6.256;2023-03-03T22:25:57;9.10;91.20
3923;DHT22;1976;51.694;6.256;2023-03-03T22:28:24;9.10;91.20
3923;DHT22;1976;51.694;6.256;2023-03-03T22:30:49;9.10;91.40
3923;DHT22;1976;51.694;6.256;2023-03-03T22:33:15;9.10;91.20
3923;DHT22;1976;51.694;6.256;2023-03-03T22:35:40;9.10;91.30
3923;DHT22;1976;51.694;6.256;2023-03-03T22:38:06;9.10;91.30
3923;DHT22;1976;51.694;6.256;2023-03-03T22:40:32;9.10;91.30
3923;DHT22;1976;51.694;6.256;2023-03-03T22:42:58;9.00;91.40
3923;DHT22;1976;51.694;6.256;2023-03-03T22:45:24;9.10;91.60
3923;DHT22;1976;51.694;6.256;2023-03-03T22:47:49;9.10;91.70
3923;DHT22;1976;51.694;6.256;2023-03-03T22:50:15;9.10;91.80
3923;DHT22;1976;51.694;6.256;2023-03-03T22:52:42;9.10;91.90
3923;DHT22;1976;51.694;6.256;2023-03-03T22:55:08;9.10;92.00
3923;DHT22;1976;51.694;6.256;2023-03-03T22:57:34;9.10;92.00
3923;DHT22;1976;51.694;6.256;2023-03-03T23:00:00;9.00;92.10
3923;DHT22;1976;51.694;6.256;2023-03-03T23:02:27;9.00;92.30
3923;DHT22;1976;51.694;6.256;2023-03-03T23:04:53;9.00;92.30
3923;DHT22;1976;51.694;6.256;2023-03-03T23:07:25;8.90;92.40
3923;DHT22;1976;51.694;6.256;2023-03-03T23:09:51;9.00;92.50
3923;DHT22;1976;51.694;6.256;2023-03-03T23:12:16;9.00;92.60
3923;DHT22;1976;51.694;6.256;2023-03-03T23:14:42;9.00;92.60
3923;DHT22;1976;51.694;6.256;2023-03-03T23:17:08;9.00;92.70
3923;DHT22;1976;51.694;6.256;2023-03-03T23:19:33;9.00;92.60
3923;DHT22;1976;51.694;6.256;2023-03-03T23:21:59;8.90;92.60
3923;DHT22;1976;51.694;6.256;2023-03-03T23:24:24;8.90;92.70
3923;DHT22;1976;51.694;6.256;2023-03-03T23:26:50;8.90;92.80
3923;DHT22;1976;51.694;6.256;2023-03-03T23:29:21;8.90;92.90
3923;DHT22;1976;51.694;6.256;2023-03-03T23:31:47;8.90;93.30